KHVE

Hanksville Airport

Hanksville, Utah, USA
METAR KHVE 151455Z AUTO 00000KT 10SM CLR 25/04 A3008 RMK AO2
Observed Flight Rules
Aug-15 @ 14:55 UTC (6 minutes ago) Visual Flight Rules
Visibility Clouds
10 miles
  • Clear skies
Temperatures Readings
Current 25°C / 77°F
Dewpoint 4°C / 39°F
Humidity 26%
Altimeter 30.08" Hg
Pressure 1019 hPa
Elevation 1350
METAR KHVE 151455Z AUTO 00000KT 10SM CLR 25/04 A3008 RMK AO2
Observed Flight Rules
Aug-15 @ 14:55 UTC
(6 minutes ago)
VFR
Clouds
  • Clear skies
Temperature Dewpoint
25°C / 77°F 4°C / 39°F
Humidity Altimeter Pressure
26% 30.08" Hg 1019 hPa